sensor_id;sensor_type;location;lat;lon;timestamp;pressure;altitude;pressure_sealevel;temperature;humidity
50093;BME280;35974;47.752;10.290;2023-08-06T00:00:29;93325.66;;;11.81;100.00
50093;BME280;35974;47.752;10.290;2023-08-06T00:02:56;93322.38;;;11.73;100.00
50093;BME280;35974;47.752;10.290;2023-08-06T00:05:22;93322.69;;;11.65;100.00
50093;BME280;35974;47.752;10.290;2023-08-06T00:07:49;93321.50;;;11.61;100.00
50093;BME280;35974;47.752;10.290;2023-08-06T00:10:16;93318.31;;;11.59;100.00
50093;BME280;35974;47.752;10.290;2023-08-06T00:12:47;93320.38;;;11.57;100.00
50093;BME280;35974;47.752;10.290;2023-08-06T00:15:14;93316.38;;;11.54;100.00
50093;BME280;35974;47.752;10.290;2023-08-06T00:17:41;93320.38;;;11.57;100.00
50093;BME280;35974;47.752;10.290;2023-08-06T00:20:07;93321.97;;;11.58;100.00
50093;BME280;35974;47.752;10.290;2023-08-06T00:22:37;93317.97;;;11.56;100.00
50093;BME280;35974;47.752;10.290;2023-08-06T00:25:04;93322.41;;;11.55;100.00
50093;BME280;35974;47.752;10.290;2023-08-06T00:27:31;93323.00;;;11.57;100.00
50093;BME280;35974;47.752;10.290;2023-08-06T00:29:58;93325.63;;;11.57;100.00
50093;BME280;35974;47.752;10.290;2023-08-06T00:32:25;93323.56;;;11.59;100.00
50093;BME280;35974;47.752;10.290;2023-08-06T00:34:51;93323.56;;;11.59;100.00
50093;BME280;35974;47.752;10.290;2023-08-06T00:37:18;93325.19;;;11.60;100.00
50093;BME280;35974;47.752;10.290;2023-08-06T00:39:44;93315.50;;;11.61;100.00
50093;BME280;35974;47.752;10.290;2023-08-06T00:42:11;93308.63;;;11.60;100.00
50093;BME280;35974;47.752;10.290;2023-08-06T00:44:38;93304.22;;;11.60;100.00
50093;BME280;35974;47.752;10.290;2023-08-06T00:47:04;93312.19;;;11.65;100.00
50093;BME280;35974;47.752;10.290;2023-08-06T00:49:32;93313.88;;;11.60;100.00
50093;BME280;35974;47.752;10.290;2023-08-06T00:51:59;93309.00;;;11.63;100.00
50093;BME280;35974;47.752;10.290;2023-08-06T00:54:26;93317.00;;;11.68;100.00
50093;BME280;35974;47.752;10.290;2023-08-06T00:56:53;93312.53;;;11.69;100.00
50093;BME280;35974;47.752;10.290;2023-08-06T00:59:20;93308.69;;;11.71;100.00
50093;BME280;35974;47.752;10.290;2023-08-06T01:01:46;93302.41;;;11.72;100.00
50093;BME280;35974;47.752;10.290;2023-08-06T01:04:13;93302.84;;;11.69;100.00
50093;BME280;35974;47.752;10.290;2023-08-06T01:06:43;93303.66;;;11.70;100.00
50093;BME280;35974;47.752;10.290;2023-08-06T01:09:16;93313.22;;;11.76;100.00
50093;BME280;35974;47.752;10.290;2023-08-06T01:14:47;93291.19;;;11.96;100.00
50093;BME280;35974;47.752;10.290;2023-08-06T01:17:17;93300.19;;;11.88;100.00
50093;BME280;35974;47.752;10.290;2023-08-06T01:19:43;93301.50;;;11.79;100.00
50093;BME280;35974;47.752;10.290;2023-08-06T01:22:11;93292.88;;;11.90;100.00
50093;BME280;35974;47.752;10.290;2023-08-06T01:24:37;93283.09;;;11.97;100.00
50093;BME280;35974;47.752;10.290;2023-08-06T01:27:06;93287.50;;;11.85;100.00
50093;BME280;35974;47.752;10.290;2023-08-06T01:29:39;93280.34;;;11.92;100.00
50093;BME280;35974;47.752;10.290;2023-08-06T01:32:11;93280.00;;;11.88;100.00
50093;BME280;35974;47.752;10.290;2023-08-06T01:34:39;93273.75;;;12.01;100.00
50093;BME280;35974;47.752;10.290;2023-08-06T01:37:06;93265.22;;;12.06;100.00
50093;BME280;35974;47.752;10.290;2023-08-06T01:39:33;93265.56;;;12.09;100.00
50093;BME280;35974;47.752;10.290;2023-08-06T01:41:59;93256.91;;;12.21;100.00
50093;BME280;35974;47.752;10.290;2023-08-06T01:44:26;93254.38;;;12.26;100.00
50093;BME280;35974;47.752;10.290;2023-08-06T01:46:52;93257.34;;;12.18;100.00
50093;BME280;35974;47.752;10.290;2023-08-06T01:49:19;93253.81;;;12.12;100.00
50093;BME280;35974;47.752;10.290;2023-08-06T01:51:45;93248.66;;;12.05;100.00
50093;BME280;35974;47.752;10.290;2023-08-06T01:54:14;93247.78;;;12.35;100.00
50093;BME280;35974;47.752;10.290;2023-08-06T01:56:41;93259.88;;;12.13;100.00
50093;BME280;35974;47.752;10.290;2023-08-06T01:59:07;93260.44;;;12.03;100.00
50093;BME280;35974;47.752;10.290;2023-08-06T02:01:40;93263.50;;;12.12;100.00
50093;BME280;35974;47.752;10.290;2023-08-06T02:04:07;93260.66;;;12.13;100.00
50093;BME280;35974;47.752;10.290;2023-08-06T02:06:33;93255.75;;;12.17;100.00
50093;BME280;35974;47.752;10.290;2023-08-06T02:08:59;93252.09;;;12.18;100.00
50093;BME280;35974;47.752;10.290;2023-08-06T02:11:26;93248.34;;;12.14;100.00
50093;BME280;35974;47.752;10.290;2023-08-06T02:13:52;93252.69;;;12.08;100.00
50093;BME280;35974;47.752;10.290;2023-08-06T02:16:19;93249.31;;;11.89;100.00
50093;BME280;35974;47.752;10.290;2023-08-06T02:18:45;93246.25;;;11.80;100.00
50093;BME280;35974;47.752;10.290;2023-08-06T02:21:12;93229.97;;;11.78;100.00
50093;BME280;35974;47.752;10.290;2023-08-06T02:23:38;93216.03;;;11.78;100.00
50093;BME280;35974;47.752;10.290;2023-08-06T02:26:04;93229.47;;;11.69;100.00
50093;BME280;35974;47.752;10.290;2023-08-06T02:28:31;93214.19;;;11.66;100.00
50093;BME280;35974;47.752;10.290;2023-08-06T02:30:58;93216.25;;;11.64;100.00
50093;BME280;35974;47.752;10.290;2023-08-06T02:33:25;93210.78;;;11.54;100.00
50093;BME280;35974;47.752;10.290;2023-08-06T02:35:58;93214.19;;;11.43;100.00
50093;BME280;35974;47.752;10.290;2023-08-06T02:38:24;93220.94;;;11.20;100.00
50093;BME280;35974;47.752;10.290;2023-08-06T02:40:51;93225.66;;;10.99;100.00
50093;BME280;35974;47.752;10.290;2023-08-06T02:43:17;93222.91;;;10.94;100.00
50093;BME280;35974;47.752;10.290;2023-08-06T02:45:43;93222.91;;;10.94;100.00
50093;BME280;35974;47.752;10.290;2023-08-06T02:48:10;93218.84;;;10.98;100.00
50093;BME280;35974;47.752;10.290;2023-08-06T02:50:40;93218.69;;;10.93;100.00
50093;BME280;35974;47.752;10.290;2023-08-06T02:53:09;93220.59;;;10.86;100.00
50093;BME280;35974;47.752;10.290;2023-08-06T02:55:36;93216.84;;;10.63;100.00
50093;BME280;35974;47.752;10.290;2023-08-06T02:58:02;93210.47;;;10.59;100.00
50093;BME280;35974;47.752;10.290;2023-08-06T03:00:29;93215.53;;;10.54;100.00
50093;BME280;35974;47.752;10.290;2023-08-06T03:02:55;93219.06;;;10.48;100.00
50093;BME280;35974;47.752;10.290;2023-08-06T03:05:21;93208.16;;;10.51;100.00
50093;BME280;35974;47.752;10.290;2023-08-06T03:07:48;93206.81;;;10.60;100.00
50093;BME280;35974;47.752;10.290;2023-08-06T03:10:14;93200.72;;;10.67;100.00
50093;BME280;35974;47.752;10.290;2023-08-06T03:12:45;93200.63;;;10.73;100.00
50093;BME280;35974;47.752;10.290;2023-08-06T03:15:11;93198.66;;;10.87;100.00
50093;BME280;35974;47.752;10.290;2023-08-06T03:17:38;93194.88;;;10.83;100.00
50093;BME280;35974;47.752;10.290;2023-08-06T03:20:05;93200.53;;;10.80;100.00
50093;BME280;35974;47.752;10.290;2023-08-06T03:22:31;93202.59;;;10.78;100.00
50093;BME280;35974;47.752;10.290;2023-08-06T03:24:58;93201.72;;;10.84;100.00
50093;BME280;35974;47.752;10.290;2023-08-06T03:27:24;93211.19;;;10.67;100.00
50093;BME280;35974;47.752;10.290;2023-08-06T03:29:50;93214.38;;;10.69;100.00
50093;BME280;35974;47.752;10.290;2023-08-06T03:32:17;93210.47;;;10.59;100.00
50093;BME280;35974;47.752;10.290;2023-08-06T03:34:43;93201.72;;;10.84;100.00
50093;BME280;35974;47.752;10.290;2023-08-06T03:37:10;93203.03;;;10.75;100.00
50093;BME280;35974;47.752;10.290;2023-08-06T03:39:43;93198.53;;;10.63;100.00
50093;BME280;35974;47.752;10.290;2023-08-06T03:42:10;93188.28;;;10.62;100.00
50093;BME280;35974;47.752;10.290;2023-08-06T03:44:36;93188.63;;;10.66;100.00
50093;BME280;35974;47.752;10.290;2023-08-06T03:47:03;93186.19;;;10.71;100.00
50093;BME280;35974;47.752;10.290;2023-08-06T03:49:29;93194.06;;;10.83;100.00
50093;BME280;35974;47.752;10.290;2023-08-06T03:51:56;93180.31;;;10.87;100.00
50093;BME280;35974;47.752;10.290;2023-08-06T03:54:22;93181.59;;;10.96;100.00
50093;BME280;35974;47.752;10.290;2023-08-06T03:56:48;93184.66;;;10.93;100.00
50093;BME280;35974;47.752;10.290;2023-08-06T03:59:15;93194.16;;;10.76;100.00
50093;BME280;35974;47.752;10.290;2023-08-06T04:01:41;93192.28;;;10.46;100.00
50093;BME280;35974;47.752;10.290;2023-08-06T04:04:07;93185.78;;;10.37;100.00
50093;BME280;35974;47.752;10.290;2023-08-06T04:06:34;93193.03;;;10.35;100.00
50093;BME280;35974;47.752;10.290;2023-08-06T04:09:00;93179.22;;;10.27;100.00
50093;BME280;35974;47.752;10.290;2023-08-06T04:11:26;93186.84;;;10.29;100.00
50093;BME280;35974;47.752;10.290;2023-08-06T04:13:53;93181.00;;;10.34;100.00
50093;BME280;35974;47.752;10.290;2023-08-06T04:16:20;93182.56;;;10.35;100.00
50093;BME280;35974;47.752;10.290;2023-08-06T04:18:47;93181.00;;;10.34;100.00
50093;BME280;35974;47.752;10.290;2023-08-06T04:21:13;93176.47;;;10.41;100.00
50093;BME280;35974;47.752;10.290;2023-08-06T04:23:40;93180.25;;;10.45;100.00
50093;BME280;35974;47.752;10.290;2023-08-06T04:26:06;93171.88;;;10.55;100.00
50093;BME280;35974;47.752;10.290;2023-08-06T04:28:32;93175.88;;;10.57;100.00
50093;BME280;35974;47.752;10.290;2023-08-06T04:33:34;93173.66;;;10.73;100.00
50093;BME280;35974;47.752;10.290;2023-08-06T04:36:01;93169.06;;;10.56;100.00
50093;BME280;35974;47.752;10.290;2023-08-06T04:38:27;93164.97;;;10.60;100.00
50093;BME280;35974;47.752;10.290;2023-08-06T04:40:55;93166.56;;;10.61;100.00
50093;BME280;35974;47.752;10.290;2023-08-06T04:43:21;93173.31;;;10.69;100.00
50093;BME280;35974;47.752;10.290;2023-08-06T04:45:52;93172.50;;;10.69;100.00
50093;BME280;35974;47.752;10.290;2023-08-06T04:48:19;93170.22;;;10.91;100.00
50093;BME280;35974;47.752;10.290;2023-08-06T04:50:46;93167.56;;;10.79;100.00
50093;BME280;35974;47.752;10.290;2023-08-06T04:53:13;93170.31;;;10.84;100.00
50093;BME280;35974;47.752;10.290;2023-08-06T04:55:39;93160.97;;;10.88;100.00
50093;BME280;35974;47.752;10.290;2023-08-06T04:58:06;93158.31;;;11.07;100.00
50093;BME280;35974;47.752;10.290;2023-08-06T05:00:32;93158.19;;;11.02;100.00
50093;BME280;35974;47.752;10.290;2023-08-06T05:02:59;93157.56;;;11.30;100.00
50093;BME280;35974;47.752;10.290;2023-08-06T05:05:28;93153.53;;;11.27;100.00
50093;BME280;35974;47.752;10.290;2023-08-06T05:07:55;93153.81;;;11.38;100.00
50093;BME280;35974;47.752;10.290;2023-08-06T05:10:24;93158.50;;;11.59;100.00
50093;BME280;35974;47.752;10.290;2023-08-06T05:15:21;93149.63;;;11.96;100.00
50093;BME280;35974;47.752;10.290;2023-08-06T05:17:47;93150.19;;;12.09;100.00
50093;BME280;35974;47.752;10.290;2023-08-06T05:20:14;93160.00;;;12.02;100.00
50093;BME280;35974;47.752;10.290;2023-08-06T05:22:40;93169.09;;;12.12;100.00
50093;BME280;35974;47.752;10.290;2023-08-06T05:25:07;93162.81;;;12.24;100.00
50093;BME280;35974;47.752;10.290;2023-08-06T05:27:34;93165.97;;;12.38;100.00
50093;BME280;35974;47.752;10.290;2023-08-06T05:30:00;93169.66;;;12.25;100.00
50093;BME280;35974;47.752;10.290;2023-08-06T05:32:26;93170.13;;;12.22;100.00
50093;BME280;35974;47.752;10.290;2023-08-06T05:34:53;93174.91;;;12.25;100.00
50093;BME280;35974;47.752;10.290;2023-08-06T05:37:20;93181.41;;;12.23;100.00
50093;BME280;35974;47.752;10.290;2023-08-06T05:39:47;93177.75;;;12.24;100.00
50093;BME280;35974;47.752;10.290;2023-08-06T05:42:13;93183.78;;;12.24;100.00
50093;BME280;35974;47.752;10.290;2023-08-06T05:44:40;93180.28;;;12.19;100.00
50093;BME280;35974;47.752;10.290;2023-08-06T05:47:07;93191.88;;;12.23;100.00
50093;BME280;35974;47.752;10.290;2023-08-06T05:49:33;93181.84;;;12.20;100.00
50093;BME280;35974;47.752;10.290;2023-08-06T05:52:00;93192.13;;;12.09;100.00
50093;BME280;35974;47.752;10.290;2023-08-06T05:54:26;93186.44;;;12.13;100.00
50093;BME280;35974;47.752;10.290;2023-08-06T05:56:53;93182.31;;;12.17;100.00
50093;BME280;35974;47.752;10.290;2023-08-06T05:59:19;93188.44;;;12.34;100.00
50093;BME280;35974;47.752;10.290;2023-08-06T06:01:45;93183.00;;;12.24;100.00
50093;BME280;35974;47.752;10.290;2023-08-06T06:04:12;93188.13;;;12.07;100.00
50093;BME280;35974;47.752;10.290;2023-08-06T06:06:38;93197.59;;;12.20;100.00
50093;BME280;35974;47.752;10.290;2023-08-06T06:09:05;93200.91;;;12.15;100.00
50093;BME280;35974;47.752;10.290;2023-08-06T06:11:31;93211.16;;;12.17;100.00
50093;BME280;35974;47.752;10.290;2023-08-06T06:14:00;93213.81;;;11.93;100.00
50093;BME280;35974;47.752;10.290;2023-08-06T06:16:27;93238.31;;;11.45;100.00
50093;BME280;35974;47.752;10.290;2023-08-06T06:18:53;93247.38;;;11.30;100.00
50093;BME280;35974;47.752;10.290;2023-08-06T06:21:20;93240.91;;;11.03;100.00
50093;BME280;35974;47.752;10.290;2023-08-06T06:23:47;93237.16;;;10.98;100.00
50093;BME280;35974;47.752;10.290;2023-08-06T06:26:13;93242.22;;;10.93;100.00
50093;BME280;35974;47.752;10.290;2023-08-06T06:28:40;93242.09;;;10.88;100.00
50093;BME280;35974;47.752;10.290;2023-08-06T06:31:07;93240.09;;;10.72;100.00
50093;BME280;35974;47.752;10.290;2023-08-06T06:33:33;93246.50;;;10.76;100.00
50093;BME280;35974;47.752;10.290;2023-08-06T06:36:01;93245.88;;;10.92;100.00
50093;BME280;35974;47.752;10.290;2023-08-06T06:38:29;93245.88;;;10.92;100.00
50093;BME280;35974;47.752;10.290;2023-08-06T06:40:56;93244.28;;;10.91;100.00
50093;BME280;35974;47.752;10.290;2023-08-06T06:43:23;93235.78;;;10.96;100.00
50093;BME280;35974;47.752;10.290;2023-08-06T06:45:53;93239.78;;;10.98;100.00
50093;BME280;35974;47.752;10.290;2023-08-06T06:48:25;93247.75;;;11.04;100.00
50093;BME280;35974;47.752;10.290;2023-08-06T06:50:51;93228.69;;;11.15;100.00
50093;BME280;35974;47.752;10.290;2023-08-06T06:53:18;93244.28;;;11.22;100.00
50093;BME280;35974;47.752;10.290;2023-08-06T06:55:45;93249.44;;;11.28;100.00
50093;BME280;35974;47.752;10.290;2023-08-06T06:58:15;93240.28;;;11.19;100.00
50093;BME280;35974;47.752;10.290;2023-08-06T07:00:43;93237.09;;;11.17;100.00
50093;BME280;35974;47.752;10.290;2023-08-06T07:03:09;93240.47;;;11.06;100.00
50093;BME280;35974;47.752;10.290;2023-08-06T07:05:36;93228.56;;;11.10;100.00
50093;BME280;35974;47.752;10.290;2023-08-06T07:08:02;93236.78;;;11.25;100.00
50093;BME280;35974;47.752;10.290;2023-08-06T07:10:29;93234.69;;;11.46;100.00
50093;BME280;35974;47.752;10.290;2023-08-06T07:12:55;93232.13;;;11.27;100.00
50093;BME280;35974;47.752;10.290;2023-08-06T07:15:22;93237.88;;;11.17;100.00
50093;BME280;35974;47.752;10.290;2023-08-06T07:17:48;93238.75;;;11.30;100.00
50093;BME280;35974;47.752;10.290;2023-08-06T07:20:15;93233.72;;;11.28;100.00
50093;BME280;35974;47.752;10.290;2023-08-06T07:22:41;93236.47;;;11.33;100.00
50093;BME280;35974;47.752;10.290;2023-08-06T07:25:07;93237.44;;;11.51;100.00
50093;BME280;35974;47.752;10.290;2023-08-06T07:27:34;93241.91;;;11.74;100.00
50093;BME280;35974;47.752;10.290;2023-08-06T07:30:00;93251.38;;;11.87;100.00
50093;BME280;35974;47.752;10.290;2023-08-06T07:32:27;93239.41;;;11.79;100.00
50093;BME280;35974;47.752;10.290;2023-08-06T07:34:55;93248.75;;;11.75;100.00
50093;BME280;35974;47.752;10.290;2023-08-06T07:37:25;93263.22;;;11.78;100.00
50093;BME280;35974;47.752;10.290;2023-08-06T07:39:55;93247.00;;;11.57;100.00
50093;BME280;35974;47.752;10.290;2023-08-06T07:42:21;93246.19;;;11.57;100.00
50093;BME280;35974;47.752;10.290;2023-08-06T07:44:52;93248.59;;;11.58;100.00
50093;BME280;35974;47.752;10.290;2023-08-06T07:47:19;93243.22;;;11.95;100.00
50093;BME280;35974;47.752;10.290;2023-08-06T07:49:45;93249.31;;;11.89;100.00
50093;BME280;35974;47.752;10.290;2023-08-06T07:52:11;93268.28;;;12.15;100.00
50093;BME280;35974;47.752;10.290;2023-08-06T07:54:44;93258.72;;;12.08;100.00
50093;BME280;35974;47.752;10.290;2023-08-06T07:57:12;93177.28;;;11.56;100.00
50093;BME280;35974;47.752;10.290;2023-08-06T07:59:40;93251.09;;;12.19;100.00
50093;BME280;35974;47.752;10.290;2023-08-06T08:02:25;93269.09;;;12.03;100.00
50093;BME280;35974;47.752;10.290;2023-08-06T08:04:52;93275.13;;;11.92;100.00
50093;BME280;35974;47.752;10.290;2023-08-06T08:07:18;93278.03;;;11.84;100.00
50093;BME280;35974;47.752;10.290;2023-08-06T08:09:45;93286.56;;;11.67;100.00
50093;BME280;35974;47.752;10.290;2023-08-06T08:12:13;93286.22;;;11.76;100.00
50093;BME280;35974;47.752;10.290;2023-08-06T08:14:43;93292.63;;;11.80;100.00
50093;BME280;35974;47.752;10.290;2023-08-06T08:17:11;93294.31;;;11.62;100.00
50093;BME280;35974;47.752;10.290;2023-08-06T08:19:39;93297.81;;;11.56;100.00
50093;BME280;35974;47.752;10.290;2023-08-06T08:22:05;93282.34;;;11.66;100.00
50093;BME280;35974;47.752;10.290;2023-08-06T08:24:32;93297.28;;;11.78;100.00
50093;BME280;35974;47.752;10.290;2023-08-06T08:26:58;93286.22;;;11.76;100.00
50093;BME280;35974;47.752;10.290;2023-08-06T08:29:25;93274.13;;;11.75;100.00
50093;BME280;35974;47.752;10.290;2023-08-06T08:31:52;93291.91;;;11.72;100.00
50093;BME280;35974;47.752;10.290;2023-08-06T08:34:19;93295.94;;;11.45;100.00
50093;BME280;35974;47.752;10.290;2023-08-06T08:36:46;93283.41;;;11.47;100.00
50093;BME280;35974;47.752;10.290;2023-08-06T08:39:13;93293.38;;;11.26;100.00
50093;BME280;35974;47.752;10.290;2023-08-06T08:41:40;93288.16;;;11.26;100.00
50093;BME280;35974;47.752;10.290;2023-08-06T08:44:08;93311.66;;;11.45;100.00
50093;BME280;35974;47.752;10.290;2023-08-06T08:46:36;93302.06;;;11.39;100.00
50093;BME280;35974;47.752;10.290;2023-08-06T08:49:03;93295.41;;;11.24;100.00
50093;BME280;35974;47.752;10.290;2023-08-06T08:51:30;93294.53;;;11.30;100.00
50093;BME280;35974;47.752;10.290;2023-08-06T08:53:57;93299.88;;;11.54;100.00
50093;BME280;35974;47.752;10.290;2023-08-06T08:56:24;93313.97;;;11.53;100.00
50093;BME280;35974;47.752;10.290;2023-08-06T08:58:50;93311.50;;;11.28;100.00
50093;BME280;35974;47.752;10.290;2023-08-06T09:01:21;93304.75;;;11.20;100.00
50093;BME280;35974;47.752;10.290;2023-08-06T09:03:48;93297.63;;;11.09;100.00
50093;BME280;35974;47.752;10.290;2023-08-06T09:06:14;93304.31;;;11.23;100.00
50093;BME280;35974;47.752;10.290;2023-08-06T09:08:43;93291.97;;;11.42;100.00
50093;BME280;35974;47.752;10.290;2023-08-06T09:11:13;93308.22;;;11.32;100.00
50093;BME280;35974;47.752;10.290;2023-08-06T09:13:39;93315.66;;;11.17;100.00
50093;BME280;35974;47.752;10.290;2023-08-06T09:16:06;93311.81;;;11.01;100.00
50093;BME280;35974;47.752;10.290;2023-08-06T09:18:32;93331.97;;;11.01;100.00
50093;BME280;35974;47.752;10.290;2023-08-06T09:20:59;93330.50;;;11.05;100.00
50093;BME280;35974;47.752;10.290;2023-08-06T09:23:28;93329.13;;;11.02;100.00
50093;BME280;35974;47.752;10.290;2023-08-06T09:25:56;93325.50;;;11.03;100.00
50093;BME280;35974;47.752;10.290;2023-08-06T09:28:23;93321.34;;;11.14;100.00
50093;BME280;35974;47.752;10.290;2023-08-06T09:30:50;93326.13;;;11.17;100.00
50093;BME280;35974;47.752;10.290;2023-08-06T09:33:22;93321.84;;;11.04;100.00
50093;BME280;35974;47.752;10.290;2023-08-06T09:35:48;93319.28;;;11.16;100.00
50093;BME280;35974;47.752;10.290;2023-08-06T09:38:15;93316.00;;;10.90;100.00
50093;BME280;35974;47.752;10.290;2023-08-06T09:40:41;93321.06;;;11.04;100.00
50093;BME280;35974;47.752;10.290;2023-08-06T09:43:08;93325.44;;;11.10;100.00
50093;BME280;35974;47.752;10.290;2023-08-06T09:45:35;93318.00;;;11.07;100.00
50093;BME280;35974;47.752;10.290;2023-08-06T09:48:05;93327.31;;;11.21;100.00
50093;BME280;35974;47.752;10.290;2023-08-06T09:50:32;93327.00;;;11.11;100.00
50093;BME280;35974;47.752;10.290;2023-08-06T09:53:00;93333.63;;;10.95;100.00
50093;BME280;35974;47.752;10.290;2023-08-06T09:55:26;93337.81;;;10.84;100.00
50093;BME280;35974;47.752;10.290;2023-08-06T09:57:53;93341.25;;;10.96;100.00
50093;BME280;35974;47.752;10.290;2023-08-06T10:00:20;93333.13;;;10.86;100.00
50093;BME280;35974;47.752;10.290;2023-08-06T10:02:46;93335.91;;;10.73;100.00
50093;BME280;35974;47.752;10.290;2023-08-06T10:05:13;93352.59;;;10.53;100.00
50093;BME280;35974;47.752;10.290;2023-08-06T10:07:40;93358.78;;;10.59;100.00
50093;BME280;35974;47.752;10.290;2023-08-06T10:10:08;93343.84;;;10.41;100.00
50093;BME280;35974;47.752;10.290;2023-08-06T10:12:39;93354.47;;;10.46;100.00
50093;BME280;35974;47.752;10.290;2023-08-06T10:15:08;93336.44;;;10.38;100.00
50093;BME280;35974;47.752;10.290;2023-08-06T10:17:36;93343.84;;;10.41;100.00
50093;BME280;35974;47.752;10.290;2023-08-06T10:20:16;93339.03;;;10.38;100.00
50093;BME280;35974;47.752;10.290;2023-08-06T10:22:43;93344.75;;;10.72;100.00
50093;BME280;35974;47.752;10.290;2023-08-06T10:25:16;93350.56;;;10.74;100.00
50093;BME280;35974;47.752;10.290;2023-08-06T10:30:21;93354.66;;;10.70;100.00
50093;BME280;35974;47.752;10.290;2023-08-06T10:32:55;93350.28;;;10.63;100.00
50093;BME280;35974;47.752;10.290;2023-08-06T10:40:40;93360.03;;;10.75;100.00
50093;BME280;35974;47.752;10.290;2023-08-06T10:43:07;93357.47;;;10.87;100.00
50093;BME280;35974;47.752;10.290;2023-08-06T10:45:35;93361.94;;;10.86;100.00
50093;BME280;35974;47.752;10.290;2023-08-06T10:48:02;93368.88;;;10.74;100.00
50093;BME280;35974;47.752;10.290;2023-08-06T10:50:29;93365.63;;;10.78;100.00
50093;BME280;35974;47.752;10.290;2023-08-06T10:52:56;93365.75;;;10.65;100.00
50093;BME280;35974;47.752;10.290;2023-08-06T10:55:26;93370.13;;;10.71;100.00
50093;BME280;35974;47.752;10.290;2023-08-06T10:57:53;93360.53;;;10.65;100.00
50093;BME280;35974;47.752;10.290;2023-08-06T11:00:20;93375.50;;;10.95;100.00
50093;BME280;35974;47.752;10.290;2023-08-06T11:02:47;93373.56;;;10.90;100.00
50093;BME280;35974;47.752;10.290;2023-08-06T11:05:15;93369.00;;;10.86;100.00
50093;BME280;35974;47.752;10.290;2023-08-06T11:07:42;93375.91;;;10.98;100.00
50093;BME280;35974;47.752;10.290;2023-08-06T11:10:12;93370.78;;;10.85;100.00
50093;BME280;35974;47.752;10.290;2023-08-06T11:12:39;93375.59;;;10.88;100.00
50093;BME280;35974;47.752;10.290;2023-08-06T11:15:06;93374.00;;;10.87;100.00
50093;BME280;35974;47.752;10.290;2023-08-06T11:17:33;93377.47;;;10.99;100.00
50093;BME280;35974;47.752;10.290;2023-08-06T11:20:03;93369.13;;;10.91;100.00
50093;BME280;35974;47.752;10.290;2023-08-06T11:22:30;93370.97;;;10.90;100.00
50093;BME280;35974;47.752;10.290;2023-08-06T11:24:56;93365.44;;;10.98;100.00
50093;BME280;35974;47.752;10.290;2023-08-06T11:27:23;93368.31;;;11.27;100.00
50093;BME280;35974;47.752;10.290;2023-08-06T11:29:52;93362.78;;;11.17;100.00
50093;BME280;35974;47.752;10.290;2023-08-06T11:32:18;93359.59;;;11.15;100.00
50093;BME280;35974;47.752;10.290;2023-08-06T11:34:45;93360.75;;;11.19;100.00
50093;BME280;35974;47.752;10.290;2023-08-06T11:37:11;93356.25;;;11.26;100.00
50093;BME280;35974;47.752;10.290;2023-08-06T11:39:38;93350.84;;;11.40;100.00
50093;BME280;35974;47.752;10.290;2023-08-06T11:42:07;93362.78;;;11.17;100.00
50093;BME280;35974;47.752;10.290;2023-08-06T11:44:37;93355.31;;;11.02;100.00
50093;BME280;35974;47.752;10.290;2023-08-06T11:47:03;93360.31;;;11.22;100.00
50093;BME280;35974;47.752;10.290;2023-08-06T11:52:10;93364.63;;;11.47;100.00
50093;BME280;35974;47.752;10.290;2023-08-06T11:54:37;93353.69;;;11.68;100.00
50093;BME280;35974;47.752;10.290;2023-08-06T11:57:07;93361.56;;;11.50;100.00
50093;BME280;35974;47.752;10.290;2023-08-06T11:59:34;93359.09;;;11.55;100.00
50093;BME280;35974;47.752;10.290;2023-08-06T12:02:07;93371.44;;;11.66;100.00
50093;BME280;35974;47.752;10.290;2023-08-06T12:07:20;93378.03;;;11.57;100.00
50093;BME280;35974;47.752;10.290;2023-08-06T12:09:51;93374.38;;;11.58;100.00
50093;BME280;35974;47.752;10.290;2023-08-06T12:12:18;93377.59;;;11.60;100.00
50093;BME280;35974;47.752;10.290;2023-08-06T12:14:44;93365.22;;;11.49;100.00
50093;BME280;35974;47.752;10.290;2023-08-06T12:17:10;93391.56;;;11.35;100.00
50093;BME280;35974;47.752;10.290;2023-08-06T12:19:37;93385.47;;;11.42;100.00
50093;BME280;35974;47.752;10.290;2023-08-06T12:22:03;93388.47;;;11.27;100.00
50093;BME280;35974;47.752;10.290;2023-08-06T12:24:30;93394.63;;;11.51;100.00
50093;BME280;35974;47.752;10.290;2023-08-06T12:26:58;93393.19;;;11.36;100.00
50093;BME280;35974;47.752;10.290;2023-08-06T12:29:25;93398.69;;;11.47;100.00
50093;BME280;35974;47.752;10.290;2023-08-06T12:31:51;93397.09;;;11.46;100.00
50093;BME280;35974;47.752;10.290;2023-08-06T12:34:18;93401.34;;;11.28;100.00
50093;BME280;35974;47.752;10.290;2023-08-06T12:36:48;93392.16;;;11.19;100.00
50093;BME280;35974;47.752;10.290;2023-08-06T12:41:55;93395.50;;;11.45;100.00
50093;BME280;35974;47.752;10.290;2023-08-06T12:44:26;93387.38;;;11.16;100.00
50093;BME280;35974;47.752;10.290;2023-08-06T12:46:53;93393.19;;;10.99;100.00
50093;BME280;35974;47.752;10.290;2023-08-06T12:49:20;93400.59;;;11.03;100.00
50093;BME280;35974;47.752;10.290;2023-08-06T12:51:49;93398.44;;;10.99;100.00
50093;BME280;35974;47.752;10.290;2023-08-06T12:54:16;93406.13;;;10.94;100.00
50093;BME280;35974;47.752;10.290;2023-08-06T12:56:43;93407.66;;;11.02;100.00
50093;BME280;35974;47.752;10.290;2023-08-06T12:59:10;93393.50;;;11.10;100.00
50093;BME280;35974;47.752;10.290;2023-08-06T13:01:42;93397.84;;;11.16;100.00
50093;BME280;35974;47.752;10.290;2023-08-06T13:04:08;93398.66;;;11.16;100.00